Latest Weather Observations for Temora

IDN60801

Issued at 4:35 pm EDT Thursday 23 October 2014 (issued every 30 minutes, with the page automatically refreshed every 10 minutes)

About weather observations | Map of weather stations | Latest weather observations for NSW | Other Formats
Station Details ID: 073151 Name: TEMORA AIRPORT Lat: -34.43 Lon: 147.51 Height: 280.5 m
Data from the previous 72 hours. | See also: Recent months at Temora
Date/Time
EDT
Temp
°C
App
Temp
°C
Dew
Point
Rel
Hum
%
Delta-T
°C
Wind Press
QNH
hPa
Press
MSL
hPa
Rain
since 9 am
mm
Dir
 
Spd
km/h
Gust
km/h
Spd
kts
Gust
kts
23/04:30pm 33.3 30.6 5.8 18 14.9 NE 9 19 5 10 1014.4 1014.0 0.0
23/04:00pm 33.2 29.0 5.7 18 14.9 N 17 24 9 13 1014.7 1014.3 0.0
23/03:30pm 33.5 29.7 7.5 20 14.5 N 17 26 9 14 1015.0 1014.5 0.0
23/03:00pm 32.5 28.5 5.1 18 14.7 NNW 15 20 8 11 1015.4 1014.9 0.0
23/02:30pm 31.2 27.0 5.6 20 13.7 N 17 26 9 14 1015.8 1015.4 0.0
23/02:00pm 32.1 29.8 9.0 24 13.1 NNE 11 19 6 10 1016.2 1015.8 0.0
23/01:30pm 30.9 27.6 9.7 27 12.1 NNE 17 26 9 14 1016.7 1016.3 0.0
23/01:00pm 29.0 25.4 10.6 32 10.6 NNE 20 28 11 15 1017.0 1016.6 0.0
23/12:30pm 29.3 26.9 11.4 33 10.4 NE 15 22 8 12 1017.4 1017.0 0.0
23/12:00pm 27.0 24.5 11.1 37 9.1 NE 15 22 8 12 1017.8 1017.4 0.0
23/11:30am 26.9 23.4 11.0 37 9.1 N 20 24 11 13 1018.0 1017.6 0.0
23/11:00am 24.7 22.2 10.9 42 7.8 NE 15 20 8 11 1018.6 1018.2 0.0
23/10:30am 23.4 20.8 10.8 45 7.1 ENE 15 20 8 11 1019.2 1018.8 0.0
23/10:00am 23.8 21.0 11.5 46 7.0 N 17 22 9 12 1018.8 1018.4 0.0
23/09:30am 22.5 20.9 11.6 50 6.2 N 11 15 6 8 1019.6 1019.2 0.0
23/09:00am 22.6 21.7 11.4 49 6.3 E 7 11 4 6 1019.6 1019.2 0.0
23/08:30am 21.8 20.1 12.4 55 5.4 ENE 13 15 7 8 1019.1 1018.7 0.0
23/08:00am 19.1 18.4 12.1 64 3.9 ENE 7 11 4 6 1019.2 1018.8 0.0
23/07:30am 17.9 16.0 11.9 68 3.3 ENE 13 19 7 10 1018.8 1018.4 0.0
23/07:00am 15.2 14.4 11.2 77 2.2 ENE 6 9 3 5 1018.7 1018.3 0.0
23/06:30am 16.6 15.9 11.3 71 2.9 ESE 6 11 3 6 1018.2 1017.8 0.0
23/06:00am 15.0 13.5 10.6 75 2.3 SSE 9 11 5 6 1018.1 1017.7 0.0
23/05:30am 16.0 13.9 11.2 73 2.6 WSW 13 20 7 11 1017.8 1017.4 0.0
23/05:00am 16.2 15.3 11.2 72 2.7 NE 7 11 4 6 1016.9 1016.5 0.0
23/04:30am 16.4 15.6 10.9 70 3.0 SSE 6 9 3 5 1016.8 1016.4 0.0
23/04:00am 18.1 16.5 11.4 65 3.7 ESE 11 15 6 8 1017.0 1016.6 0.0
23/03:30am 15.9 15.0 10.7 71 2.8 SE 6 9 3 5 1017.7 1017.3 0.0
23/03:00am 16.3 15.4 10.8 70 3.0 SSE 6 9 3 5 1018.4 1018.0 0.0
23/02:30am 12.5 10.1 9.9 84 1.4 SW 13 15 7 8 1018.4 1018.0 0.0
23/02:00am 11.9 10.5 8.7 81 1.6 SSW 6 7 3 4 1017.8 1017.4 0.0
23/01:30am 11.7 10.3 8.7 82 1.5 SW 6 9 3 5 1018.0 1017.6 0.0
23/01:00am 12.7 12.5 9.2 79 1.8 CALM 0 0 0 0 1018.1 1017.7 0.0
23/12:30am 12.9 12.8 9.5 80 1.8 CALM 0 0 0 0 1018.4 1018.0 0.0
23/12:00am 13.3 13.2 9.5 78 2.0 S 0 0 0 0 1018.3 1017.9 0.0
 
Date/Time
EDT
Temp
°C
App
Temp
°C
Dew
Point
Rel
Hum
%
Delta-T
°C
Wind Press
QNH
hPa
Press
MSL
hPa
Rain
since 9 am
mm
Dir
 
Spd
km/h
Gust
km/h
Spd
kts
Gust
kts
22/11:30pm 13.5 13.4 9.6 77 2.0 CALM 0 0 0 0 1018.3 1017.9 0.0
22/11:00pm 13.7 13.7 9.7 77 2.1 CALM 0 0 0 0 1018.6 1018.2 0.0
22/10:30pm 14.5 14.6 10.1 75 2.3 CALM 0 7 0 4 1018.7 1018.3 0.0
22/10:00pm 14.9 14.8 9.3 69 2.9 CALM 0 0 0 0 1018.7 1018.3 0.0
22/09:30pm 15.8 15.2 9.0 64 3.5 SE 2 6 1 3 1018.6 1018.2 0.0
22/09:00pm 17.7 17.6 9.6 59 4.3 CALM 0 0 0 0 1018.3 1017.9 0.0
22/08:30pm 21.0 19.6 8.9 46 6.5 E 6 9 3 5 1017.9 1017.5 0.0
22/08:00pm 22.7 21.3 9.5 43 7.2 E 7 9 4 5 1017.5 1017.1 0.0
22/07:30pm 25.8 25.5 8.8 34 9.3 CALM 0 0 0 0 1017.5 1017.1 0.0
22/07:00pm 29.1 28.8 8.7 28 11.4 CALM 0 0 0 0 1017.5 1017.1 0.0
22/06:30pm 30.5 30.1 8.3 25 12.4 CALM 0 9 0 5 1017.4 1017.0 0.0
22/06:00pm 29.9 27.8 8.3 26 12.0 NW 9 13 5 7 1017.6 1017.2 0.0
22/05:30pm 30.1 28.6 8.5 26 12.1 N 6 15 3 8 1017.7 1017.3 0.0
22/05:00pm 30.1 27.9 7.9 25 12.3 N 9 15 5 8 1017.8 1017.4 0.0
22/04:30pm 30.0 27.7 9.0 27 11.8 N 11 22 6 12 1018.1 1017.7 0.0
22/04:00pm 29.8 27.1 8.8 27 11.8 NNW 13 20 7 11 1018.4 1018.0 0.0
22/03:30pm 29.3 26.2 8.9 28 11.4 N 15 26 8 14 1019.0 1018.6 0.0
22/03:00pm 29.2 26.2 9.3 29 11.2 N 15 22 8 12 1019.5 1019.1 0.0
22/02:30pm 28.2 25.3 9.5 31 10.5 N 15 26 8 14 1020.0 1019.6 0.0
22/02:00pm 28.0 25.1 9.8 32 10.3 NNE 15 32 8 17 1020.5 1020.1 0.0
22/01:30pm 27.1 23.1 10.3 35 9.5 NNE 22 32 12 17 1021.0 1020.6 0.0
22/01:00pm 26.4 22.6 9.7 35 9.3 NNE 20 32 11 17 1021.4 1021.0 0.0
22/12:30pm 26.6 22.6 10.3 36 9.2 N 22 28 12 15 1021.9 1021.6 0.0
22/12:00pm 24.9 20.3 9.6 38 8.5 NNE 24 35 13 19 1022.7 1022.3 0.0
22/11:30am 23.9 20.4 10.9 44 7.3 NE 20 30 11 16 1023.3 1022.9 0.0
22/11:00am 21.7 17.8 9.6 46 6.6 ENE 20 26 11 14 1023.9 1023.5 0.0
22/10:30am 20.9 17.2 10.1 50 5.9 NE 20 28 11 15 1024.4 1024.0 0.0
22/10:00am 19.4 15.8 9.9 54 5.1 NE 19 32 10 17 1024.8 1024.5 0.0
22/09:30am 17.6 13.6 9.2 58 4.4 NE 20 28 11 15 1024.9 1024.6 0.0
22/09:00am 16.4 12.4 9.1 62 3.8 ENE 20 26 11 14 1025.0 1024.7 0.0
22/08:30am 15.1 11.1 9.0 67 3.2 ENE 20 28 11 15 1024.9 1024.6 0.0
22/08:00am 14.1 10.3 9.1 72 2.6 E 19 24 10 13 1024.8 1024.5 0.0
22/07:30am 12.4 8.5 8.5 77 2.0 E 19 26 10 14 1024.6 1024.3 0.0
22/07:00am 11.3 7.7 8.2 81 1.5 E 17 24 9 13 1024.5 1024.1 0.0
22/06:30am 10.9 8.0 8.0 82 1.4 E 13 20 7 11 1024.7 1024.4 0.0
22/06:00am 10.9 7.6 8.0 82 1.4 E 15 19 8 10 1024.2 1023.8 0.0
22/05:30am 11.0 7.3 8.0 82 1.5 E 17 24 9 13 1023.8 1023.4 0.0
22/05:00am 11.0 7.7 8.2 83 1.4 ENE 15 20 8 11 1023.8 1023.4 0.0
22/04:30am 11.5 7.9 8.2 80 1.6 ENE 17 26 9 14 1023.8 1023.4 0.0
22/04:00am 11.9 8.3 8.2 78 1.8 ENE 17 22 9 12 1024.1 1023.7 0.0
22/03:30am 12.2 9.4 8.5 78 1.9 ENE 13 20 7 11 1024.1 1023.7 0.0
22/03:00am 12.5 8.6 8.6 77 2.0 E 19 26 10 14 1024.1 1023.7 0.0
22/02:30am 12.8 8.9 8.7 76 2.1 E 19 26 10 14 1024.4 1024.0 0.0
22/02:00am 13.1 9.0 8.8 75 2.2 E 20 28 11 15 1024.8 1024.5 0.0
22/01:30am 13.6 9.8 9.1 74 2.3 E 19 26 10 14 1025.2 1024.9 0.0
22/01:00am 13.8 9.8 9.0 73 2.5 E 20 26 11 14 1025.5 1025.2 0.0
22/12:30am 14.2 10.4 9.0 71 2.7 E 19 26 10 14 1026.1 1025.7 0.0
22/12:00am 14.7 10.8 9.3 70 2.8 E 20 32 11 17 1026.3 1025.9 0.0
 
Date/Time
EDT
Temp
°C
App
Temp
°C
Dew
Point
Rel
Hum
%
Delta-T
°C
Wind Press
QNH
hPa
Press
MSL
hPa
Rain
since 9 am
mm
Dir
 
Spd
km/h
Gust
km/h
Spd
kts
Gust
kts
21/11:30pm 15.2 11.3 9.3 68 3.1 E 20 30 11 16 1026.3 1025.9 0.0
21/11:00pm 15.6 11.9 9.5 67 3.2 E 19 28 10 15 1026.4 1026.0 0.0
21/10:30pm 16.1 12.2 9.5 65 3.5 E 20 28 11 15 1026.4 1026.0 0.0
21/10:00pm 16.5 12.7 9.7 64 3.6 E 20 32 11 17 1026.2 1025.8 0.0
21/09:30pm 17.0 13.2 9.9 63 3.8 E 20 30 11 16 1025.7 1025.4 0.0
21/09:00pm 17.8 14.1 10.2 61 4.1 E 20 30 11 16 1025.5 1025.2 0.0
21/08:30pm 18.4 14.4 10.5 60 4.3 E 22 32 12 17 1025.3 1025.0 0.0
21/08:00pm 19.1 15.1 10.6 58 4.6 E 22 30 12 16 1025.0 1024.7 0.0
21/07:30pm 20.2 15.9 10.9 55 5.1 E 24 37 13 20 1024.8 1024.5 0.0
21/07:00pm 21.9 18.1 11.3 51 5.9 ESE 22 30 12 16 1024.4 1024.0 0.0
21/06:30pm 23.7 19.1 11.1 45 7.1 ESE 26 37 14 20 1024.1 1023.7 0.0
21/06:00pm 25.9 21.9 10.5 38 8.7 E 22 30 12 16 1023.9 1023.5 0.0
21/05:30pm 26.9 23.3 10.6 36 9.3 E 20 30 11 16 1023.7 1023.3 0.0
21/05:00pm 27.1 23.5 9.9 34 9.7 E 19 26 10 14 1023.8 1023.4 0.0
21/04:30pm 27.7 24.4 9.5 32 10.2 ENE 17 33 9 18 1024.0 1023.6 0.0
21/04:00pm 27.2 23.9 9.5 33 9.9 E 17 24 9 13 1024.1 1023.7 0.0
21/03:30pm 26.6 23.1 8.6 32 9.9 NE 17 30 9 16 1024.6 1024.3 0.0
21/03:00pm 26.6 22.6 9.0 33 9.7 NE 20 32 11 17 1025.1 1024.8 0.0
21/02:30pm 26.7 22.4 9.5 34 9.6 NNE 22 28 12 15 1025.4 1025.1 0.0
21/02:00pm 25.7 22.1 9.9 37 8.8 E 19 28 10 15 1026.1 1025.7 0.0
21/01:30pm 25.3 21.1 9.6 37 8.7 NE 22 39 12 21 1026.7 1026.3 0.0
21/01:00pm 24.1 19.5 9.7 40 7.9 ENE 24 35 13 19 1027.0 1026.6 0.0
21/12:30pm 23.6 19.0 9.6 41 7.7 ENE 24 35 13 19 1027.4 1027.0 0.0
21/12:00pm 23.3 18.5 10.4 44 7.2 ENE 26 37 14 20 1027.8 1027.5 0.0
21/11:30am 22.1 16.4 9.9 46 6.7 E 30 41 16 22 1028.2 1027.9 0.0
21/11:00am 21.0 15.6 9.6 48 6.2 E 28 39 15 21 1028.5 1028.2 0.0
21/10:30am 19.2 13.7 9.1 52 5.4 E 28 39 15 21 1028.9 1028.6 0.0
21/10:00am 18.3 12.0 8.8 54 5.0 E 32 43 17 23 1029.1 1028.8 0.0
21/09:30am 17.4 11.8 8.8 57 4.5 E 28 39 15 21 1029.2 1028.9 0.0
21/09:00am 16.3 10.6 8.5 60 4.0 ENE 28 43 15 23 1029.2 1028.9 0.0
21/08:30am 15.3 9.3 8.5 64 3.5 E 30 46 16 25 1029.0 1028.7 0.0
21/08:00am 14.2 7.7 8.2 67 3.0 E 32 43 17 23 1028.6 1028.3 0.0
21/07:30am 13.4 8.5 8.3 71 2.6 E 24 35 13 19 1028.2 1027.9 0.0
21/07:00am 12.6 8.4 8.3 75 2.1 E 20 32 11 17 1028.0 1027.7 0.0
21/06:30am 12.2 7.6 8.1 76 2.0 E 22 33 12 18 1027.7 1027.4 0.0
21/06:00am 12.2 7.6 8.1 76 2.0 E 22 32 12 17 1027.4 1027.0 0.0
21/05:30am 12.3 7.3 8.0 75 2.1 E 24 33 13 18 1027.2 1026.8 0.0
21/05:00am 12.4 7.0 8.1 75 2.1 E 26 37 14 20 1027.1 1026.7 0.0
21/04:30am 12.4 7.4 8.1 75 2.1 E 24 35 13 19 1026.9 1026.5 0.0
21/04:00am 12.3 6.9 8.0 75 2.1 E 26 37 14 20 1026.9 1026.5 0.0
21/03:30am 12.5 7.1 8.0 74 2.2 E 26 37 14 20 1027.1 1026.7 0.0
21/03:00am 12.4 7.4 7.9 74 2.2 E 24 37 13 20 1027.1 1026.7 0.0
21/02:30am 12.5 6.7 7.8 73 2.3 E 28 39 15 21 1027.1 1026.7 0.0
21/02:00am 12.6 6.7 7.7 72 2.4 E 28 39 15 21 1027.3 1026.9 0.0
21/01:30am 12.6 7.5 7.7 72 2.4 E 24 35 13 19 1027.4 1027.0 0.0
21/01:00am 12.8 6.6 7.9 72 2.4 E 30 46 16 25 1027.5 1027.1 0.0
21/12:51am 12.9 7.1 7.8 71 2.5 E 28 46 15 25 1027.5 1027.1 0.0
21/12:30am 12.9 7.5 7.8 71 2.5 E 26 37 14 20 1027.6 1027.2 0.0
21/12:00am 13.0 7.1 7.7 70 2.6 E 28 41 15 22 1027.6 1027.2 0.0
 
Date/Time
EDT
Temp
°C
App
Temp
°C
Dew
Point
Rel
Hum
%
Delta-T
°C
Wind Press
QNH
hPa
Press
MSL
hPa
Rain
since 9 am
mm
Dir
 
Spd
km/h
Gust
km/h
Spd
kts
Gust
kts
20/11:30pm 13.3 7.0 7.5 68 2.9 E 30 50 16 27 1027.7 1027.4 0.0
20/11:25pm 13.4 7.5 7.6 68 2.9 E 28 50 15 27 1027.7 1027.4 0.0
20/11:00pm 13.5 8.0 7.7 68 2.9 E 26 41 14 22 1027.5 1027.1 0.0
20/10:30pm 13.8 8.5 8.4 70 2.7 E 26 41 14 22 1027.3 1026.9 0.0
20/10:00pm 14.3 8.7 8.7 69 2.9 E 28 43 15 23 1027.0 1026.6 0.0
20/09:50pm 14.4 8.8 8.8 69 2.9 E 28 46 15 25 1027.0 1026.6 0.0
20/09:30pm 14.7 9.5 8.9 68 3.0 E 26 44 14 24 1026.9 1026.5 0.0
20/09:00pm 15.5 10.4 9.2 66 3.3 E 26 39 14 21 1026.4 1026.0 0.0
20/08:30pm 16.5 11.9 9.7 64 3.6 E 24 41 13 22 1025.8 1025.5 0.0
20/08:00pm 17.8 12.5 9.9 60 4.2 E 28 39 15 21 1025.2 1024.9 0.0
20/07:30pm 19.2 14.0 10.2 56 4.9 E 28 44 15 24 1024.6 1024.3 0.0
20/07:00pm 20.6 15.8 10.4 52 5.6 E 26 35 14 19 1024.0 1023.6 0.0
20/06:30pm 22.5 17.8 10.6 47 6.6 E 26 39 14 21 1023.6 1023.2 0.0
20/06:00pm 23.9 18.9 10.9 44 7.3 E 28 39 15 21 1023.3 1022.9 0.0
20/05:30pm 25.5 20.1 10.9 40 8.3 E 30 39 16 21 1023.1 1022.7 0.0
20/05:00pm 27.0 21.6 12.3 40 8.6 E 32 41 17 22 1022.6 1022.2 0.0

Other Formats:

Comma delimited format used in spreadsheet applications
http://www.bom.gov.au/fwo/IDN60801/IDN60801.95722.axf

JavaScript Object Notation format (JSON) in row-major order
http://www.bom.gov.au/fwo/IDN60801/IDN60801.95722.json